createdAt,value
2022-09-12T15:02:43.441Z,1.08
2022-09-12T15:04:48.039Z,1.10
2022-09-12T15:13:16.017Z,1.25
2022-09-12T15:15:21.187Z,1.33
2022-09-12T15:17:23.977Z,1.33
2022-09-12T15:19:26.613Z,1.30
2022-09-12T15:21:29.398Z,1.33
2022-09-12T15:23:36.290Z,1.20
2022-09-12T15:25:39.256Z,1.17
2022-09-12T15:27:42.547Z,1.20
2022-09-12T15:29:46.885Z,1.50
2022-09-12T15:31:52.483Z,1.20
2022-09-12T15:33:57.038Z,1.30
2022-09-12T15:35:59.763Z,1.27
2022-09-12T15:38:02.396Z,1.10
2022-09-12T15:40:05.870Z,1.30
2022-09-12T15:42:10.307Z,1.40
2022-09-12T15:44:14.181Z,1.30
2022-09-12T15:46:19.546Z,1.40
2022-09-12T15:48:22.633Z,1.38
2022-09-12T15:50:26.466Z,1.20
2022-09-12T15:52:29.456Z,1.10
2022-09-12T15:54:32.348Z,1.25
2022-09-12T15:56:35.102Z,1.35
2022-09-12T15:58:49.728Z,1.33
2022-09-12T16:01:02.291Z,1.38
2022-09-12T16:03:06.426Z,1.10
2022-09-12T16:05:14.794Z,1.38
2022-09-12T16:07:17.359Z,1.35
2022-09-12T16:09:20.236Z,1.48
2022-09-12T16:11:24.304Z,1.27
2022-09-12T16:13:27.299Z,1.38
2022-09-12T16:15:35.535Z,1.30
2022-09-12T16:17:38.539Z,1.13
2022-09-12T16:19:43.258Z,1.20
2022-09-12T16:21:52.409Z,1.20
2022-09-12T16:24:05.323Z,1.40
2022-09-12T16:26:09.061Z,1.13
2022-09-12T16:28:11.999Z,1.10
2022-09-12T16:30:14.824Z,1.50
2022-09-12T16:32:17.640Z,1.30
2022-09-12T16:34:26.724Z,1.20
2022-09-12T16:36:31.146Z,1.40
2022-09-12T16:38:39.407Z,1.20
2022-09-12T16:40:49.021Z,1.15
2022-09-12T16:42:52.637Z,1.25
2022-09-12T16:44:58.560Z,1.35
2022-09-12T16:47:01.169Z,1.40
2022-09-12T16:49:04.073Z,1.10
2022-09-12T16:51:07.721Z,1.23
2022-09-12T16:53:11.740Z,1.40
2022-09-12T16:55:14.428Z,1.27
2022-09-12T16:57:17.220Z,1.40
2022-09-12T16:59:19.821Z,1.20
2022-09-12T17:01:24.489Z,1.13
2022-09-12T17:03:27.404Z,1.20
2022-09-12T17:05:30.405Z,1.35
2022-09-12T17:07:33.150Z,1.58
2022-09-12T17:09:37.211Z,1.30
2022-09-12T17:11:40.437Z,1.35
2022-09-12T17:14:03.900Z,1.52
2022-09-12T17:16:11.024Z,1.45
2022-09-12T17:18:13.771Z,1.40
2022-09-12T17:20:16.702Z,1.20
2022-09-12T17:22:19.516Z,1.20
2022-09-12T17:24:22.993Z,1.70
2022-09-12T17:26:27.293Z,1.30
2022-09-12T17:28:30.477Z,1.38
2022-09-12T17:30:35.747Z,1.45
2022-09-12T17:32:38.573Z,1.48
2022-09-12T17:34:41.243Z,1.42
2022-09-12T17:36:45.216Z,1.35
2022-09-12T17:38:48.227Z,1.45
2022-09-12T17:40:59.531Z,1.48
2022-09-12T17:43:04.624Z,1.50
2022-09-12T17:45:08.537Z,1.45
2022-09-12T17:47:24.097Z,1.50
2022-09-12T17:49:30.341Z,1.23
2022-09-12T17:51:34.141Z,1.42
2022-09-12T17:53:40.932Z,1.75
2022-09-12T17:55:43.983Z,1.63
2022-09-12T17:57:47.335Z,1.50
2022-09-12T17:59:51.487Z,2.03
2022-09-12T18:02:11.711Z,1.98
2022-09-12T18:04:15.324Z,2.00
2022-09-12T18:06:18.970Z,2.05
2022-09-12T18:08:22.576Z,2.03
2022-09-12T18:10:30.244Z,1.92
2022-09-12T18:12:36.899Z,2.00
2022-09-12T18:14:39.944Z,1.90
2022-09-12T18:16:45.152Z,1.95
2022-09-12T18:18:50.909Z,2.00
2022-09-12T18:20:53.560Z,1.80
2022-09-12T18:22:56.243Z,1.70
2022-09-12T18:24:58.904Z,1.95
2022-09-12T18:27:01.814Z,1.50
2022-09-12T18:29:05.406Z,1.83
2022-09-12T18:31:12.396Z,1.83
2022-09-12T18:33:18.817Z,1.60
2022-09-12T18:35:24.544Z,1.80
2022-09-12T18:37:27.454Z,1.90
2022-09-12T18:39:30.052Z,1.85
2022-09-12T18:41:32.788Z,1.80
2022-09-12T18:43:35.608Z,1.80
2022-09-12T18:45:38.291Z,1.98
2022-09-12T18:47:41.882Z,1.80
2022-09-12T18:49:45.825Z,1.90
2022-09-12T18:51:48.411Z,1.90
2022-09-12T18:53:53.191Z,1.67
2022-09-12T18:56:01.398Z,1.95
2022-09-12T18:58:04.016Z,1.83
2022-09-12T19:00:12.259Z,1.85
2022-09-12T19:02:16.728Z,1.77
2022-09-12T19:04:19.418Z,1.90
2022-09-12T19:06:25.273Z,1.90
2022-09-12T19:08:28.316Z,2.08
2022-09-12T19:10:31.382Z,1.90
2022-09-12T19:12:33.970Z,1.80
2022-09-12T19:14:36.566Z,2.28
2022-09-12T19:16:39.184Z,1.90
2022-09-12T19:18:42.964Z,2.00
2022-09-12T19:20:45.553Z,2.13
2022-09-12T19:22:49.818Z,2.00
2022-09-12T19:24:52.431Z,2.00
2022-09-12T19:26:55.018Z,1.75
2022-09-12T19:28:58.074Z,1.85
2022-09-12T19:31:01.763Z,1.88
2022-09-12T19:33:04.675Z,1.80
2022-09-12T19:35:07.754Z,1.70
2022-09-12T19:37:10.494Z,1.80
2022-09-12T19:39:14.769Z,1.63
2022-09-12T19:41:19.003Z,1.70
2022-09-12T19:43:21.819Z,1.90
2022-09-12T19:45:24.895Z,1.80
2022-09-12T19:47:27.846Z,1.83
2022-09-12T19:49:30.774Z,1.92
2022-09-12T19:51:33.701Z,1.92
2022-09-12T19:53:37.317Z,2.40
2022-09-12T19:55:41.542Z,2.45
2022-09-12T19:57:44.293Z,2.15
2022-09-12T19:59:47.948Z,1.70
2022-09-12T20:01:50.804Z,1.98
2022-09-12T20:03:53.824Z,1.98
2022-09-12T20:06:03.085Z,1.83
2022-09-12T20:08:05.756Z,2.00
2022-09-12T20:10:08.976Z,1.80
2022-09-12T20:12:14.361Z,2.03
2022-09-12T20:14:17.020Z,1.83
2022-09-12T20:16:22.819Z,1.80
2022-09-12T20:18:25.707Z,2.00
2022-09-12T20:20:28.342Z,1.92
2022-09-12T20:22:30.946Z,2.15
2022-09-12T20:24:33.670Z,2.30
2022-09-12T20:26:37.084Z,1.90
2022-09-12T20:28:42.128Z,2.20
2022-09-12T20:30:44.746Z,2.10
2022-09-12T20:32:47.333Z,1.80
2022-09-12T20:34:52.932Z,1.95
2022-09-12T20:36:55.575Z,1.92
2022-09-12T20:39:01.200Z,1.80
2022-09-12T20:41:05.226Z,1.80
2022-09-12T20:43:07.816Z,1.73
2022-09-12T20:45:12.241Z,1.75
2022-09-12T20:47:14.881Z,1.90
2022-09-12T20:49:17.697Z,1.65
2022-09-12T20:51:21.512Z,1.65
2022-09-12T20:53:24.237Z,1.80
2022-09-12T20:55:26.837Z,1.67
2022-09-12T20:57:29.490Z,1.77
2022-09-12T20:59:32.375Z,1.55
2022-09-12T21:01:36.443Z,1.67
2022-09-12T21:03:39.631Z,1.83
2022-09-12T21:05:43.355Z,1.90
2022-09-12T21:07:45.959Z,1.75
2022-09-12T21:09:48.867Z,1.85
2022-09-12T21:11:51.464Z,1.80
2022-09-12T21:13:54.998Z,1.65
2022-09-12T21:16:01.162Z,1.73
2022-09-12T21:18:05.622Z,1.80
2022-09-12T21:20:11.363Z,2.00
2022-09-12T21:22:14.259Z,2.05
2022-09-12T21:24:17.046Z,1.80
2022-09-12T21:26:19.837Z,2.00
2022-09-12T21:28:22.550Z,2.00
2022-09-12T21:30:25.268Z,1.80
2022-09-12T21:32:32.460Z,1.83
2022-09-12T21:34:36.593Z,1.98
2022-09-12T21:36:39.292Z,2.00
2022-09-12T21:38:41.886Z,1.85
2022-09-12T21:40:44.643Z,1.88
2022-09-12T21:42:49.424Z,1.95
2022-09-12T21:44:52.131Z,2.08
2022-09-12T21:46:54.792Z,2.22
2022-09-12T21:48:57.597Z,2.08
2022-09-12T21:51:01.791Z,1.80
2022-09-12T21:53:04.384Z,1.95
2022-09-12T21:55:08.918Z,2.00
2022-09-12T21:57:11.498Z,2.33
2022-09-12T21:59:14.055Z,1.92
2022-09-12T22:01:16.718Z,1.98
2022-09-12T22:03:19.290Z,1.83
2022-09-12T22:05:24.545Z,2.00
2022-09-12T22:07:29.303Z,1.98
2022-09-12T22:09:32.770Z,2.10
2022-09-12T22:11:35.412Z,2.05
2022-09-12T22:13:39.706Z,1.85
2022-09-12T22:15:45.357Z,1.95
2022-09-12T22:17:54.313Z,2.00
2022-09-12T22:19:57.125Z,2.20
2022-09-12T22:22:17.473Z,2.03
2022-09-12T22:24:30.443Z,1.88
2022-09-12T22:26:41.898Z,2.10
2022-09-12T22:28:45.083Z,2.08
2022-09-12T22:30:51.354Z,1.95
2022-09-12T22:32:54.011Z,2.10
2022-09-12T22:34:57.803Z,2.30
2022-09-12T22:37:01.186Z,2.22
2022-09-12T22:39:04.170Z,2.22
2022-09-12T22:41:10.101Z,2.17
2022-09-12T22:43:12.974Z,2.10
2022-09-12T22:45:15.588Z,2.50
2022-09-12T22:47:19.955Z,2.03
2022-09-12T22:49:22.646Z,2.10
2022-09-12T22:51:25.618Z,2.03
2022-09-12T22:53:28.589Z,2.00
2022-09-12T22:55:31.417Z,2.30
2022-09-12T22:57:36.122Z,2.22
2022-09-12T22:59:39.928Z,2.30
2022-09-12T23:01:42.519Z,2.05
2022-09-12T23:03:45.555Z,2.35
2022-09-12T23:05:48.733Z,2.13
2022-09-12T23:07:51.973Z,2.33
2022-09-12T23:09:54.572Z,2.10
2022-09-12T23:11:57.300Z,2.10
2022-09-12T23:14:01.709Z,2.20
2022-09-12T23:16:06.780Z,2.03
2022-09-12T23:18:09.412Z,2.20
2022-09-12T23:20:11.997Z,2.20
2022-09-12T23:22:14.674Z,2.53
2022-09-12T23:24:17.761Z,2.08
2022-09-12T23:26:22.714Z,2.42
2022-09-12T23:28:25.326Z,2.13
2022-09-12T23:30:29.257Z,2.25
2022-09-12T23:32:31.886Z,2.10
2022-09-12T23:34:34.594Z,2.20
2022-09-12T23:36:37.278Z,2.67
2022-09-12T23:38:40.027Z,2.58
2022-09-12T23:40:42.673Z,2.30
2022-09-12T23:42:45.256Z,2.53
2022-09-12T23:44:47.860Z,2.50
2022-09-12T23:46:51.846Z,2.70
2022-09-12T23:48:54.608Z,2.70
2022-09-12T23:50:57.273Z,2.45
2022-09-12T23:52:59.842Z,2.97
2022-09-12T23:55:02.611Z,2.60
2022-09-12T23:57:05.503Z,2.50
2022-09-12T23:59:08.149Z,2.85
